OMDB/DXB METAR and TAF weather

Enter ICAO airport designator
Station Type Date Time Source
OMDB METAR 2019/02/16 07:17 UTC NOAA

OMDB 160717Z 19010KT 160V240 5000 DU NSC 27/14 Q1017 TEMPO 3000


Station Type Date Time Source
OMDB Decoded METAR 2019/02/16 07:17 UTC NOAA

Dubai International Airport, United Arab Emirates (OMDB) 25-15N 055-20E 5M
Feb 16, 2019 - 02:17 AM EST / 2019.02.16 0717 UTC
Wind: from the S (190 degrees) at 12 MPH (10 KT) (direction variable):0
Visibility: 3 mile(s):0
Weather: widespread dust
Temperature: 80 F (27 C)
Dew Point: 57 F (14 C)
Relative Humidity: 44%
Pressure (altimeter): 30.03 in. Hg (1017 hPa)
ob: OMDB 160717Z 19010KT 160V240 5000 DU NSC 27/14 Q1017 TEMPO 3000
cycle: 7

Station Type Date Time Source
OMDB TAF 2019/02/16 06:42 UTC NOAA

TAF
AMD TAF OMDB 160635Z 1606/1712 17015KT 8000 NSC PROB30
TEMPO 1606/1610 4000 DU
BECMG 1611/1613 34012KT
BECMG 1615/1617 07006KT
BECMG 1703/1705 18012KT
BECMG 1707/1709 34012KT


Example: see airport list